Time;durP1;ratioP1;P1;durP2;ratioP2;P2;SDS_P1;SDS_P2;PMS_P1;PMS_P2;Temp;Humidity;BMP_temperature;BMP_pressure;BME280_temperature;BME280_humidity;BME280_pressure;Samples;Min_cycle;Max_cycle;Signal;HPM_P1;HPM_P2
2024/03/18 00:04:19;;;;;;;6.78;3.60;;;;;;;9.38;59.12;100058.56;10429594;28;20081;-62
2024/03/18 00:09:20;;;;;;;6.18;3.67;;;;;;;9.33;59.17;100050.16;10425852;28;20495;-62
2024/03/18 00:14:21;;;;;;;7.43;3.85;;;;;;;9.36;59.05;100052.56;10408882;28;20127;-61
2024/03/18 00:19:22;;;;;;;9.50;3.78;;;;;;;9.29;58.81;100050.38;10427054;28;20504;-61
2024/03/18 00:24:24;;;;;;;6.65;3.90;;;;;;;9.14;59.14;100044.19;10444070;28;20077;-61
2024/03/18 00:29:25;;;;;;;7.75;4.30;;;;;;;9.15;59.06;100038.06;10422272;28;20041;-61
2024/03/18 00:34:26;;;;;;;9.70;5.18;;;;;;;9.08;59.16;100041.03;10394130;28;20033;-62
2024/03/18 00:39:27;;;;;;;7.95;4.18;;;;;;;9.06;59.32;100038.53;10430085;28;20056;-61
2024/03/18 00:44:28;;;;;;;8.80;3.88;;;;;;;9.11;59.27;100026.09;10428893;28;20076;-61
2024/03/18 00:49:29;;;;;;;9.50;4.15;;;;;;;9.05;59.49;100023.81;10405353;28;20312;-61
2024/03/18 00:54:30;;;;;;;8.93;4.60;;;;;;;9.17;59.53;100025.78;10435438;28;20465;-62
2024/03/18 00:59:31;;;;;;;8.93;3.95;;;;;;;9.23;59.46;100019.38;10435084;28;20068;-62
2024/03/18 01:04:32;;;;;;;7.70;3.92;;;;;;;9.31;59.70;100012.84;10418548;28;20172;-61
2024/03/18 01:09:34;;;;;;;8.65;4.30;;;;;;;9.43;59.48;100006.13;10434258;28;20470;-61
2024/03/18 01:14:35;;;;;;;8.68;4.13;;;;;;;9.47;59.52;100003.25;10449724;28;20080;-62
2024/03/18 01:19:37;;;;;;;6.35;3.75;;;;;;;9.48;59.57;100009.34;10417776;28;20473;-61
2024/03/18 01:24:38;;;;;;;6.85;3.47;;;;;;;9.46;59.69;100001.56;10432294;28;20048;-60
2024/03/18 01:29:39;;;;;;;9.88;4.35;;;;;;;9.43;59.74;100003.50;10416274;28;20037;-61
2024/03/18 01:34:40;;;;;;;9.07;3.83;;;;;;;9.43;59.86;99999.13;10415512;28;20549;-60
2024/03/18 01:39:41;;;;;;;11.07;4.53;;;;;;;9.51;59.76;100002.16;10415961;28;20045;-60
2024/03/18 01:44:53;;;;;;;5.80;3.28;;;;;;;9.49;60.36;100000.56;10417662;28;21159;-61
2024/03/18 01:49:54;;;;;;;12.63;3.83;;;;;;;9.50;60.40;99997.03;10416555;28;20077;-61
2024/03/18 01:54:56;;;;;;;9.63;4.35;;;;;;;9.51;60.50;99989.13;10433220;28;20144;-61
2024/03/18 01:59:59;;;;;;;6.22;3.78;;;;;;;9.49;60.75;99993.59;10415480;28;20083;-60
2024/03/18 02:05:01;;;;;;;6.60;3.75;;;;;;;9.54;60.65;99982.91;10450473;28;20056;-61
2024/03/18 02:10:03;;;;;;;6.68;4.22;;;;;;;9.58;60.69;99974.78;10396194;28;20064;-60
2024/03/18 02:15:04;;;;;;;8.57;4.35;;;;;;;9.45;60.67;99972.94;10428979;28;20127;-62
2024/03/18 02:20:07;;;;;;;10.10;4.65;;;;;;;9.35;60.98;99966.53;10433991;28;20056;-62
2024/03/18 02:25:09;;;;;;;8.30;4.28;;;;;;;9.21;61.67;99963.81;10427243;28;21016;-61
2024/03/18 02:30:10;;;;;;;10.32;4.60;;;;;;;9.10;62.04;99966.16;10430939;28;20136;-61
2024/03/18 02:35:16;;;;;;;8.27;4.70;;;;;;;9.03;61.98;99947.41;10413869;28;20053;-62
2024/03/18 02:40:17;;;;;;;7.28;4.55;;;;;;;8.82;62.14;99938.94;10448542;28;20061;-62
2024/03/18 02:45:18;;;;;;;7.90;4.47;;;;;;;8.64;62.72;99936.44;10448291;28;20052;-61
2024/03/18 02:50:19;;;;;;;9.27;5.22;;;;;;;8.60;63.30;99935.75;10399230;28;20130;-62
2024/03/18 02:55:20;;;;;;;5.72;3.60;;;;;;;8.57;63.19;99925.47;10412081;28;20051;-62
2024/03/18 03:00:21;;;;;;;7.75;4.10;;;;;;;8.56;63.41;99917.75;10409987;28;20067;-61
2024/03/18 03:05:22;;;;;;;7.28;3.75;;;;;;;8.66;63.38;99909.38;10413240;28;20131;-61
2024/03/18 03:10:24;;;;;;;8.82;4.45;;;;;;;8.59;63.47;99908.00;10412440;28;20187;-62
2024/03/18 03:15:25;;;;;;;8.52;4.13;;;;;;;8.71;63.33;99911.72;10425987;28;20040;-61
2024/03/18 03:20:30;;;;;;;6.05;3.67;;;;;;;8.72;63.34;99903.84;10412557;28;20072;-61
2024/03/18 03:25:31;;;;;;;5.55;3.15;;;;;;;8.52;63.56;99906.66;10428530;28;20491;-62
2024/03/18 03:30:32;;;;;;;9.00;4.40;;;;;;;8.39;63.97;99902.97;10393883;28;20485;-61
2024/03/18 03:35:35;;;;;;;6.63;3.65;;;;;;;8.52;63.92;99904.03;10410809;28;20037;-61
2024/03/18 03:40:36;;;;;;;11.55;4.72;;;;;;;8.57;64.01;99903.78;10461452;28;20049;-61
2024/03/18 03:45:37;;;;;;;7.97;4.00;;;;;;;8.58;63.86;99890.69;10428110;28;20053;-62
2024/03/18 03:50:38;;;;;;;9.45;4.05;;;;;;;8.60;63.79;99891.44;10410206;28;20680;-61
2024/03/18 03:55:39;;;;;;;5.45;3.58;;;;;;;8.61;63.83;99880.09;10426006;28;20401;-62
2024/03/18 04:00:44;;;;;;;7.07;3.92;;;;;;;8.73;63.99;99889.00;10427508;28;20087;-61
2024/03/18 04:05:45;;;;;;;6.97;3.90;;;;;;;8.84;63.87;99887.53;10463973;28;20045;-62
2024/03/18 04:10:46;;;;;;;8.38;4.10;;;;;;;8.89;63.61;99879.47;10410646;28;20084;-61
2024/03/18 04:15:49;;;;;;;9.15;4.72;;;;;;;8.87;63.83;99885.69;10428865;28;20605;-62
2024/03/18 04:20:53;;;;;;;7.68;3.95;;;;;;;8.80;63.50;99877.34;10450808;28;20135;-61
2024/03/18 04:25:54;;;;;;;6.78;3.80;;;;;;;8.62;63.91;99873.97;10430933;28;21203;-61
2024/03/18 04:30:55;;;;;;;6.78;4.10;;;;;;;8.76;63.92;99878.44;10434586;28;20083;-61
2024/03/18 04:35:56;;;;;;;7.28;3.78;;;;;;;8.70;63.86;99873.56;10435868;28;20072;-62
2024/03/18 04:41:01;;;;;;;7.57;4.40;;;;;;;8.66;64.20;99874.63;10418851;28;20148;-61
2024/03/18 04:46:02;;;;;;;6.65;3.97;;;;;;;8.68;63.83;99881.47;10415182;28;20216;-62
2024/03/18 04:51:03;;;;;;;6.93;3.75;;;;;;;8.62;64.13;99868.75;10434546;28;20136;-61
2024/03/18 04:56:04;;;;;;;7.53;4.03;;;;;;;8.69;64.08;99879.66;10437446;28;20164;-62
2024/03/18 05:01:05;;;;;;;5.80;3.60;;;;;;;8.69;64.13;99870.09;10434895;28;20143;-62
2024/03/18 05:06:07;;;;;;;8.13;3.80;;;;;;;8.75;63.90;99864.56;10418334;28;20056;-61
2024/03/18 05:11:08;;;;;;;9.00;4.35;;;;;;;8.82;64.23;99865.06;10433636;28;20584;-61
2024/03/18 05:16:09;;;;;;;7.75;4.07;;;;;;;8.98;64.12;99859.84;10447030;28;20140;-62
2024/03/18 05:21:10;;;;;;;7.75;4.00;;;;;;;9.07;64.08;99849.78;10434810;28;20627;-62
2024/03/18 05:26:12;;;;;;;7.45;3.97;;;;;;;9.16;63.94;99851.03;10417692;28;20288;-62
2024/03/18 05:31:13;;;;;;;9.88;4.35;;;;;;;9.21;63.81;99847.25;10432571;28;20050;-62
2024/03/18 05:36:14;;;;;;;7.70;3.90;;;;;;;9.25;63.72;99851.38;10434260;28;20773;-61
2024/03/18 05:41:15;;;;;;;8.15;3.85;;;;;;;9.31;63.67;99848.44;10417584;28;20041;-62
2024/03/18 05:46:17;;;;;;;10.48;4.88;;;;;;;9.29;63.69;99852.88;10416682;28;20063;-62
2024/03/18 05:51:18;;;;;;;11.00;5.35;;;;;;;9.18;63.84;99854.44;10417547;28;20084;-61
2024/03/18 05:56:20;;;;;;;7.57;4.05;;;;;;;9.21;63.68;99855.09;10433347;28;20132;-60
2024/03/18 06:01:21;;;;;;;7.80;4.40;;;;;;;9.12;63.61;99852.97;10416234;28;20154;-60
2024/03/18 06:06:22;;;;;;;7.55;4.50;;;;;;;9.22;63.75;99863.75;10431826;28;21349;-62
2024/03/18 06:11:23;;;;;;;11.82;4.90;;;;;;;9.33;63.74;99867.44;10431458;28;20132;-61
2024/03/18 06:16:24;;;;;;;8.32;4.30;;;;;;;9.39;63.46;99869.72;10426668;28;20056;-61
2024/03/18 06:21:32;;;;;;;7.82;4.38;;;;;;;9.48;63.45;99869.19;10429871;28;20504;-61
2024/03/18 06:26:33;;;;;;;7.63;4.55;;;;;;;9.57;63.10;99866.06;10432079;28;20140;-61
2024/03/18 06:31:35;;;;;;;7.75;4.47;;;;;;;9.61;62.94;99867.56;10434116;28;20076;-61
2024/03/18 06:36:36;;;;;;;12.35;4.80;;;;;;;9.73;62.79;99870.47;10433598;28;20091;-60
2024/03/18 06:41:38;;;;;;;9.82;4.65;;;;;;;9.76;62.88;99872.88;10432707;28;20124;-61
2024/03/18 06:46:39;;;;;;;8.38;4.63;;;;;;;9.83;62.81;99871.63;10415686;28;20141;-61
2024/03/18 06:51:40;;;;;;;8.30;4.68;;;;;;;9.78;62.65;99873.63;10414548;28;20154;-61
2024/03/18 06:56:41;;;;;;;9.30;4.55;;;;;;;9.64;63.05;99883.09;10417132;28;20072;-62
2024/03/18 07:01:42;;;;;;;7.82;4.28;;;;;;;9.58;63.37;99883.41;10432753;28;20127;-62
2024/03/18 07:06:43;;;;;;;9.60;4.20;;;;;;;9.53;63.13;99892.44;10429275;28;20083;-62
2024/03/18 07:11:45;;;;;;;8.27;4.45;;;;;;;9.53;63.34;99885.44;10431406;28;20106;-63
2024/03/18 07:16:47;;;;;;;10.10;4.65;;;;;;;9.46;63.41;99888.50;10444372;28;20041;-62
2024/03/18 07:21:49;;;;;;;9.18;5.15;;;;;;;9.47;63.85;99892.78;10423207;28;20060;-61
2024/03/18 07:26:51;;;;;;;8.95;4.43;;;;;;;9.47;63.92;99890.16;10425305;28;20202;-61
2024/03/18 07:31:56;;;;;;;8.25;4.75;;;;;;;9.44;63.86;99899.00;10407010;28;20049;-62
2024/03/18 07:36:58;;;;;;;7.45;3.72;;;;;;;9.29;63.62;99894.66;10424003;28;20122;-62
2024/03/18 07:42:03;;;;;;;8.13;4.13;;;;;;;9.34;63.39;99891.78;10456768;28;20052;-62
2024/03/18 07:47:05;;;;;;;6.95;3.83;;;;;;;9.50;63.22;99884.78;10424255;28;20053;-62
2024/03/18 07:52:06;;;;;;;6.72;3.88;;;;;;;9.49;63.09;99889.16;10410266;28;20080;-63
2024/03/18 07:57:07;;;;;;;8.18;4.18;;;;;;;9.45;63.25;99897.25;10407728;28;20091;-62
2024/03/18 08:02:09;;;;;;;7.93;4.32;;;;;;;9.60;63.45;99893.78;10424088;28;20128;-62
2024/03/18 08:07:10;;;;;;;7.47;4.30;;;;;;;9.65;63.34;99891.75;10421426;28;20122;-62
2024/03/18 08:12:15;;;;;;;9.50;4.40;;;;;;;9.58;63.23;99891.22;10391927;28;20611;-62
2024/03/18 08:17:19;;;;;;;8.50;4.43;;;;;;;9.77;62.93;99898.09;10405144;28;20061;-61
2024/03/18 08:22:20;;;;;;;8.68;4.53;;;;;;;9.57;63.04;99896.56;10420141;28;20437;-61
2024/03/18 08:27:22;;;;;;;8.73;4.03;;;;;;;9.65;63.15;99891.75;10423047;28;20423;-61
2024/03/18 08:32:23;;;;;;;7.75;4.65;;;;;;;9.76;63.17;99894.63;10384956;28;20064;-63
2024/03/18 08:37:24;;;;;;;7.88;4.68;;;;;;;9.82;63.46;99896.03;10406270;28;20109;-62
2024/03/18 08:42:25;;;;;;;7.95;4.13;;;;;;;9.75;63.35;99890.31;10424139;28;20068;-61
2024/03/18 08:47:27;;;;;;;6.95;4.20;;;;;;;9.85;63.72;99893.28;10423594;28;20136;-61
2024/03/18 08:52:28;;;;;;;7.38;4.30;;;;;;;10.02;63.46;99887.91;10421206;28;20071;-62
2024/03/18 08:57:29;;;;;;;9.77;4.85;;;;;;;10.09;63.25;99879.63;10422435;28;20124;-62
2024/03/18 09:02:30;;;;;;;10.30;4.82;;;;;;;10.09;63.25;99897.06;10405022;28;20808;-62
2024/03/18 09:07:31;;;;;;;7.45;4.55;;;;;;;10.03;63.36;99892.22;10428968;28;20134;-61
2024/03/18 09:12:32;;;;;;;6.15;3.63;;;;;;;9.91;63.50;99879.84;10412616;28;20049;-62
2024/03/18 09:17:33;;;;;;;7.78;4.35;;;;;;;10.06;64.15;99874.56;10425386;28;20131;-62
2024/03/18 09:22:36;;;;;;;8.23;4.60;;;;;;;10.52;63.02;99878.75;10411696;28;20072;-62
2024/03/18 09:27:40;;;;;;;8.43;4.00;;;;;;;10.66;62.83;99872.69;10416222;28;20044;-62
2024/03/18 09:32:41;;;;;;;6.80;4.13;;;;;;;10.95;62.54;99876.13;10414844;28;20155;-62
2024/03/18 09:37:42;;;;;;;9.40;4.22;;;;;;;10.99;62.44;99895.94;10415842;28;20774;-62
2024/03/18 09:42:43;;;;;;;6.20;3.83;;;;;;;10.74;62.42;99898.38;10427719;28;20037;-62
2024/03/18 09:47:47;;;;;;;8.57;4.53;;;;;;;10.87;62.28;99891.44;10431116;28;20091;-62
2024/03/18 09:52:50;;;;;;;7.78;4.32;;;;;;;11.22;62.10;99890.13;10414703;28;20555;-62
2024/03/18 09:57:52;;;;;;;8.77;4.15;;;;;;;11.20;61.72;99894.63;10412716;28;20045;-62
2024/03/18 10:02:58;;;;;;;8.27;4.20;;;;;;;11.20;61.76;99903.31;10423451;28;20090;-60
2024/03/18 10:07:59;;;;;;;8.07;4.85;;;;;;;11.32;62.27;99903.50;10422434;28;20049;-58
2024/03/18 10:13:00;;;;;;;6.47;3.80;;;;;;;11.44;61.15;99902.72;10424741;28;20136;-57
2024/03/18 10:18:09;;;;;;;8.80;4.10;;;;;;;11.28;62.27;99908.06;10409420;28;20056;-58
2024/03/18 10:23:15;;;;;;;8.88;4.38;;;;;;;11.56;62.10;99912.41;10422931;28;20041;-58
2024/03/18 10:28:20;;;;;;;7.72;4.65;;;;;;;11.87;61.55;99920.81;10424938;28;20052;-57
2024/03/18 10:33:22;;;;;;;7.25;3.95;;;;;;;11.96;61.36;99920.22;10426894;28;20075;-58
2024/03/18 10:38:24;;;;;;;8.10;4.60;;;;;;;12.03;61.05;99924.09;10421114;28;20292;-58
2024/03/18 10:43:32;;;;;;;7.57;3.90;;;;;;;11.89;60.85;99910.22;10427362;28;20052;-58
2024/03/18 10:48:34;;;;;;;9.40;4.22;;;;;;;12.41;60.41;99912.88;10460851;28;21010;-58
2024/03/18 10:53:37;;;;;;;10.18;4.57;;;;;;;12.60;59.53;99903.66;10456419;28;20056;-58
2024/03/18 10:58:39;;;;;;;7.53;4.30;;;;;;;12.66;59.31;99903.22;10410163;28;20056;-58
2024/03/18 11:03:44;;;;;;;7.50;3.53;;;;;;;12.72;59.49;99896.75;10424705;28;20039;-56
2024/03/18 11:08:49;;;;;;;7.70;3.90;;;;;;;12.74;59.83;99919.28;10425692;28;20258;-57
2024/03/18 11:13:52;;;;;;;8.80;4.78;;;;;;;13.08;59.56;99920.44;10412219;28;20060;-56
2024/03/18 11:19:05;;;;;;;5.65;3.00;;;;;;;13.24;58.86;99926.28;10427624;28;20700;-56
2024/03/18 11:24:08;;;;;;;7.18;3.67;;;;;;;13.17;59.21;99940.78;10443651;28;20103;-57
2024/03/18 11:29:10;;;;;;;6.85;3.88;;;;;;;13.07;59.54;99947.63;10421785;28;20152;-58
2024/03/18 11:34:14;;;;;;;7.10;3.65;;;;;;;12.89;59.76;99946.25;10433526;28;20117;-56
2024/03/18 11:39:17;;;;;;;7.95;4.38;;;;;;;12.87;59.70;99942.91;10413795;28;20033;-57
2024/03/18 11:44:18;;;;;;;10.13;4.03;;;;;;;12.98;59.30;99943.84;10452546;28;20812;-58
2024/03/18 11:49:21;;;;;;;9.80;4.55;;;;;;;13.25;59.45;99935.81;10425226;28;20052;-56
2024/03/18 11:54:23;;;;;;;6.65;3.67;;;;;;;13.46;58.39;99921.19;10424936;28;20048;-56
2024/03/18 11:59:24;;;;;;;7.90;4.28;;;;;;;13.76;58.43;99926.00;10404752;28;20163;-57
2024/03/18 12:04:26;;;;;;;9.75;4.25;;;;;;;14.10;57.99;99914.72;10405484;28;20048;-56
2024/03/18 12:09:29;;;;;;;5.75;3.58;;;;;;;14.43;57.33;99913.97;10409694;28;20068;-56
2024/03/18 12:14:31;;;;;;;6.38;3.72;;;;;;;14.85;56.58;99901.97;10409466;28;20102;-59
2024/03/18 12:19:32;;;;;;;6.28;3.40;;;;;;;14.96;56.77;99901.97;10408737;28;20214;-57
2024/03/18 12:29:58;;;;;;;5.40;3.30;;;;;;;14.40;56.39;99899.25;10459010;28;20068;-57
2024/03/18 12:34:59;;;;;;;6.60;2.65;;;;;;;14.14;57.00;99895.13;10409714;28;20052;-58
2024/03/18 12:40:04;;;;;;;7.57;3.50;;;;;;;14.14;56.47;99892.50;10444767;28;20168;-56
2024/03/18 12:45:08;;;;;;;6.53;3.67;;;;;;;14.13;56.78;99887.31;10432347;28;20052;-57
2024/03/18 12:50:16;;;;;;;6.80;3.35;;;;;;;14.70;56.36;99890.81;10434449;28;20056;-58
2024/03/18 12:55:17;;;;;;;6.43;3.20;;;;;;;15.06;56.33;99868.69;10407101;28;20057;-58
2024/03/18 13:00:19;;;;;;;5.70;3.35;;;;;;;14.97;55.68;99872.88;10422264;28;20088;-58
2024/03/18 13:05:21;;;;;;;5.57;3.10;;;;;;;14.80;55.75;99878.63;10426902;28;20044;-57
2024/03/18 13:10:22;;;;;;;4.40;2.55;;;;;;;14.96;56.25;99879.09;10407246;28;20139;-56
2024/03/18 13:15:24;;;;;;;4.88;2.70;;;;;;;14.62;55.95;99879.22;10410576;28;20052;-58
2024/03/18 13:20:27;;;;;;;6.05;2.83;;;;;;;14.25;56.30;99870.63;10409115;28;20147;-57
2024/03/18 13:25:28;;;;;;;4.28;2.75;;;;;;;14.14;56.59;99871.47;10427537;28;20047;-58
2024/03/18 13:30:29;;;;;;;6.22;2.72;;;;;;;14.57;56.17;99871.69;10428804;28;20033;-57
2024/03/18 13:35:32;;;;;;;5.13;2.55;;;;;;;14.70;56.04;99863.66;10426838;28;20056;-56
2024/03/18 13:40:33;;;;;;;5.18;2.67;;;;;;;14.73;55.96;99872.19;10430456;28;20044;-55
2024/03/18 13:45:35;;;;;;;5.13;2.45;;;;;;;14.73;56.06;99873.97;10430932;28;21129;-56
2024/03/18 13:50:36;;;;;;;5.70;2.80;;;;;;;14.66;55.77;99870.97;10415281;28;20146;-58
2024/03/18 13:55:38;;;;;;;6.43;2.90;;;;;;;14.78;56.46;99883.16;10413624;28;20061;-57
2024/03/18 14:00:39;;;;;;;6.07;2.90;;;;;;;14.88;56.64;99865.69;10431464;28;20128;-57
2024/03/18 14:05:41;;;;;;;5.30;3.13;;;;;;;14.85;57.03;99862.47;10447914;28;20472;-58
2024/03/18 14:10:42;;;;;;;3.95;2.40;;;;;;;15.13;56.86;99847.00;10430920;28;20052;-58
2024/03/18 14:15:44;;;;;;;3.45;1.95;;;;;;;15.23;56.83;99847.09;10464043;28;20076;-55
2024/03/18 14:20:45;;;;;;;6.57;2.67;;;;;;;15.61;56.47;99844.03;10430002;28;20076;-56
2024/03/18 14:25:46;;;;;;;4.47;2.40;;;;;;;15.80;55.70;99842.41;10430264;28;20140;-60
2024/03/18 14:30:47;;;;;;;5.47;2.58;;;;;;;15.64;56.10;99847.25;10413429;28;20072;-59
2024/03/18 14:35:48;;;;;;;3.85;2.47;;;;;;;15.79;56.16;99846.00;10413600;28;20040;-59
2024/03/18 14:40:49;;;;;;;3.38;2.20;;;;;;;16.08;55.81;99841.78;10430561;28;20469;-59
2024/03/18 14:45:50;;;;;;;3.47;2.03;;;;;;;16.40;55.66;99835.59;10428679;28;20128;-57
2024/03/18 14:50:53;;;;;;;3.28;1.73;;;;;;;16.62;55.57;99838.09;10428501;28;21680;-57
2024/03/18 14:55:54;;;;;;;4.18;2.03;;;;;;;17.00;55.08;99839.06;10379076;28;20148;-58
2024/03/18 15:00:55;;;;;;;3.28;2.00;;;;;;;16.68;54.69;99834.91;10426250;28;20140;-55
2024/03/18 15:05:56;;;;;;;3.65;2.08;;;;;;;17.05;53.98;99828.09;10408794;28;20135;-56
2024/03/18 15:10:59;;;;;;;4.20;1.80;;;;;;;17.08;53.93;99822.53;10410972;28;20164;-57
2024/03/18 15:16:03;;;;;;;4.40;2.08;;;;;;;16.85;53.79;99813.16;10410677;28;20141;-56
2024/03/18 15:21:08;;;;;;;3.22;2.00;;;;;;;16.05;54.31;99815.66;10411851;28;20091;-57
2024/03/18 15:31:33;;;;;;;2.90;1.75;;;;;;;15.75;55.19;99815.59;10444699;28;20491;-57
2024/03/18 15:36:36;;;;;;;4.18;2.10;;;;;;;15.91;54.91;99823.91;10427265;28;20394;-57
2024/03/18 15:41:38;;;;;;;5.28;1.83;;;;;;;16.15;54.51;99815.72;10427846;28;20499;-57
2024/03/18 15:46:40;;;;;;;3.53;1.77;;;;;;;16.17;54.28;99822.53;10426686;28;20627;-57
2024/03/18 15:51:41;;;;;;;3.45;1.80;;;;;;;15.86;54.96;99833.97;10427580;28;20045;-57
2024/03/18 15:56:44;;;;;;;3.13;1.63;;;;;;;15.47;55.09;99828.50;10427140;28;20375;-58
2024/03/18 16:01:45;;;;;;;4.15;2.17;;;;;;;15.01;55.90;99832.19;10423081;28;20083;-57
2024/03/18 16:06:46;;;;;;;2.47;1.67;;;;;;;14.89;56.42;99832.31;10423013;28;20052;-56
2024/03/18 16:11:47;;;;;;;3.40;1.73;;;;;;;14.76;56.72;99842.97;10423082;28;20597;-57
2024/03/18 16:16:48;;;;;;;2.83;2.10;;;;;;;14.64;56.92;99843.06;10426029;28;20123;-57
2024/03/18 16:21:51;;;;;;;4.75;1.95;;;;;;;14.33;57.49;99842.78;10424608;28;20535;-56
2024/03/18 16:26:52;;;;;;;3.28;1.88;;;;;;;14.29;57.36;99849.22;10427571;28;20060;-57
2024/03/18 16:31:53;;;;;;;4.82;2.08;;;;;;;14.26;57.86;99843.38;10432349;28;20079;-57
2024/03/18 16:36:54;;;;;;;3.97;1.90;;;;;;;14.22;57.83;99858.56;10431617;28;20052;-57
2024/03/18 16:41:55;;;;;;;3.08;1.92;;;;;;;14.17;57.94;99852.81;10432190;28;20033;-57
2024/03/18 16:46:56;;;;;;;2.88;1.70;;;;;;;14.11;58.00;99860.31;10431515;28;20080;-56
2024/03/18 16:51:57;;;;;;;3.17;1.70;;;;;;;14.21;58.38;99867.41;10431199;28;20068;-57
2024/03/18 16:56:58;;;;;;;4.40;1.65;;;;;;;14.39;58.06;99871.25;10430611;28;20164;-57
2024/03/18 17:01:59;;;;;;;3.22;1.67;;;;;;;14.45;58.06;99872.59;10434742;28;20135;-57
2024/03/18 17:07:00;;;;;;;5.45;2.25;;;;;;;14.37;58.27;99878.44;10466807;28;20127;-56
2024/03/18 17:12:02;;;;;;;2.72;1.50;;;;;;;14.30;58.45;99879.88;10416446;28;20600;-57
2024/03/18 17:17:03;;;;;;;3.08;1.70;;;;;;;14.29;58.81;99895.75;10431554;28;20128;-58
2024/03/18 17:22:07;;;;;;;3.85;1.58;;;;;;;14.06;58.63;99894.88;10435168;28;20064;-57
2024/03/18 17:27:09;;;;;;;3.05;1.58;;;;;;;13.77;58.97;99893.53;10431168;28;20064;-57
2024/03/18 17:32:10;;;;;;;3.25;1.60;;;;;;;13.64;59.24;99908.50;10430645;28;20083;-58
2024/03/18 17:37:11;;;;;;;2.85;1.48;;;;;;;13.47;59.44;99914.16;10413979;28;20493;-58
2024/03/18 17:42:12;;;;;;;10.93;2.28;;;;;;;13.22;59.89;99925.53;10431501;28;20099;-58
2024/03/18 17:47:13;;;;;;;6.82;2.63;;;;;;;13.00;60.14;99917.50;10427150;28;20060;-57
2024/03/18 17:52:14;;;;;;;3.30;1.80;;;;;;;12.81;60.32;99932.81;10429820;28;20059;-57
2024/03/18 17:57:18;;;;;;;2.83;1.60;;;;;;;12.64;61.05;99944.47;10435903;28;20132;-56
2024/03/18 18:02:19;;;;;;;2.90;1.85;;;;;;;12.59;61.46;99956.22;10434570;28;20072;-58
2024/03/18 18:07:20;;;;;;;2.30;1.60;;;;;;;12.67;61.46;99959.19;10419095;28;20452;-62
2024/03/18 18:12:21;;;;;;;2.65;1.70;;;;;;;12.70;61.73;99967.69;10468248;28;20092;-61
2024/03/18 18:17:23;;;;;;;2.97;1.92;;;;;;;12.75;61.64;99968.22;10415215;28;20124;-61
2024/03/18 18:22:28;;;;;;;2.22;1.50;;;;;;;12.73;62.04;99977.97;10433455;28;20067;-61
2024/03/18 18:27:29;;;;;;;8.20;2.78;;;;;;;12.69;62.01;99987.00;10434964;28;20068;-61
2024/03/18 18:32:30;;;;;;;4.07;2.20;;;;;;;12.66;62.18;99987.19;10434035;28;20524;-62
2024/03/18 18:37:32;;;;;;;4.15;2.05;;;;;;;12.67;62.32;99994.13;10432790;28;20124;-62
2024/03/18 18:42:33;;;;;;;5.28;2.17;;;;;;;12.67;62.16;100001.16;10433839;28;20124;-62
2024/03/18 18:47:35;;;;;;;7.53;2.78;;;;;;;12.57;62.71;100002.72;10430809;28;20136;-61
2024/03/18 18:52:37;;;;;;;2.67;1.65;;;;;;;12.39;62.68;100003.94;10431470;28;20382;-61
2024/03/18 18:57:40;;;;;;;4.15;1.92;;;;;;;12.26;63.00;100010.88;10426874;28;20140;-62
2024/03/18 19:02:41;;;;;;;5.07;2.17;;;;;;;12.15;63.16;100022.91;10419817;28;20037;-61
2024/03/18 19:07:42;;;;;;;7.30;3.47;;;;;;;12.07;63.25;100022.56;10424165;28;20047;-61
2024/03/18 19:12:43;;;;;;;6.80;2.10;;;;;;;11.88;63.64;100021.25;10424310;28;20123;-62
2024/03/18 19:17:45;;;;;;;4.22;2.17;;;;;;;11.73;64.23;100024.81;10425904;28;20053;-61
2024/03/18 19:22:47;;;;;;;6.32;2.28;;;;;;;11.72;64.29;100028.38;10455446;28;20036;-61
2024/03/18 19:27:50;;;;;;;7.10;3.28;;;;;;;11.68;64.46;100034.75;10427152;28;20126;-61
2024/03/18 19:32:51;;;;;;;6.22;2.88;;;;;;;11.63;64.45;100039.44;10415848;28;20161;-61
2024/03/18 19:37:52;;;;;;;4.72;2.97;;;;;;;11.56;64.58;100038.13;10423301;28;20132;-61
2024/03/18 19:42:57;;;;;;;4.88;2.60;;;;;;;11.48;64.64;100033.34;10415156;28;20065;-61
2024/03/18 19:47:59;;;;;;;8.43;3.90;;;;;;;11.36;64.55;100043.78;10427062;28;20091;-60
2024/03/18 19:53:01;;;;;;;4.85;2.65;;;;;;;11.18;64.94;100045.72;10393203;28;20049;-60
2024/03/18 19:58:02;;;;;;;6.95;2.28;;;;;;;11.15;65.30;100051.97;10421484;28;20417;-62
2024/03/18 20:03:05;;;;;;;6.15;2.20;;;;;;;11.24;65.45;100054.03;10407526;28;20450;-62
2024/03/18 20:08:06;;;;;;;3.55;2.17;;;;;;;11.27;65.45;100053.84;10422772;28;20044;-61
2024/03/18 20:13:08;;;;;;;6.20;2.25;;;;;;;11.27;65.70;100061.69;10406482;28;20146;-61
2024/03/18 20:18:11;;;;;;;4.32;2.70;;;;;;;11.29;65.49;100062.44;10407533;28;20729;-61
2024/03/18 20:23:13;;;;;;;3.42;2.20;;;;;;;11.25;65.95;100060.94;10390688;28;20480;-62
2024/03/18 20:28:14;;;;;;;4.68;2.35;;;;;;;11.29;65.87;100067.66;10406307;28;20144;-61
2024/03/18 20:33:16;;;;;;;5.72;2.45;;;;;;;11.27;65.95;100064.31;10404891;28;20557;-61
2024/03/18 20:38:17;;;;;;;5.32;2.35;;;;;;;11.24;65.88;100068.91;10404993;28;20033;-61
2024/03/18 20:43:19;;;;;;;4.28;2.65;;;;;;;11.09;65.96;100073.28;10421971;28;20076;-62
2024/03/18 20:48:20;;;;;;;5.18;2.10;;;;;;;10.95;65.90;100070.59;10421163;28;20140;-61
2024/03/18 20:53:21;;;;;;;4.45;2.13;;;;;;;10.83;65.99;100067.84;10430380;28;20080;-61
2024/03/18 20:58:22;;;;;;;5.68;2.40;;;;;;;10.71;65.96;100074.66;10429405;28;20469;-62
2024/03/18 21:03:23;;;;;;;4.18;2.80;;;;;;;10.60;66.17;100073.59;10419557;28;20131;-61
2024/03/18 21:08:24;;;;;;;3.97;2.03;;;;;;;10.43;66.20;100077.16;10437421;28;20052;-61
2024/03/18 21:13:26;;;;;;;5.03;2.38;;;;;;;10.32;66.24;100071.69;10421624;28;20048;-60
2024/03/18 21:18:27;;;;;;;4.75;2.33;;;;;;;10.28;66.43;100070.19;10437304;28;20170;-61
2024/03/18 21:23:28;;;;;;;4.47;2.20;;;;;;;10.15;66.55;100071.81;10421395;28;20091;-60
2024/03/18 21:28:29;;;;;;;4.90;2.40;;;;;;;9.97;66.76;100078.06;10429498;28;20059;-60
2024/03/18 21:33:30;;;;;;;5.38;2.40;;;;;;;9.95;67.01;100070.28;10420903;28;20136;-60
2024/03/18 21:38:31;;;;;;;15.98;3.28;;;;;;;9.97;66.83;100076.25;10419935;28;20091;-61
2024/03/18 21:43:33;;;;;;;11.68;2.47;;;;;;;9.80;66.90;100083.34;10414522;28;20057;-60
2024/03/18 21:48:42;;;;;;;71.72;6.57;;;;;;;9.79;66.94;100077.28;10423552;28;20045;-61
2024/03/18 21:53:43;;;;;;;8.80;2.40;;;;;;;9.85;66.83;100082.16;10429152;28;20052;-60
2024/03/18 21:58:44;;;;;;;12.20;2.25;;;;;;;9.53;67.60;100086.47;10421877;28;20083;-60
2024/03/18 22:03:45;;;;;;;28.10;2.67;;;;;;;9.51;67.69;100082.25;10417075;28;21330;-60
2024/03/18 22:08:46;;;;;;;7.70;2.15;;;;;;;9.67;67.41;100088.38;10436886;28;20489;-60
2024/03/18 22:13:47;;;;;;;3.67;1.73;;;;;;;9.68;66.95;100078.78;10429288;28;20104;-60
2024/03/18 22:18:48;;;;;;;31.58;2.10;;;;;;;9.63;66.93;100090.28;10414496;28;20049;-60
2024/03/18 22:23:49;;;;;;;4.63;1.50;;;;;;;9.51;67.08;100092.69;10427858;28;20501;-60
2024/03/18 22:28:51;;;;;;;63.63;2.95;;;;;;;9.48;67.03;100090.25;10434437;28;20037;-60
2024/03/18 22:33:54;;;;;;;17.48;2.30;;;;;;;9.45;67.17;100088.66;10450625;28;20044;-60
2024/03/18 22:38:56;;;;;;;15.68;2.30;;;;;;;9.40;67.00;100088.03;10433794;28;20131;-60
2024/03/18 22:43:57;;;;;;;6.60;1.60;;;;;;;9.41;66.98;100087.13;10433504;28;20127;-60
2024/03/18 22:48:58;;;;;;;29.92;2.60;;;;;;;9.23;67.13;100087.22;10384236;28;20056;-60
2024/03/18 22:53:59;;;;;;;10.82;1.85;;;;;;;9.17;67.25;100095.38;10431484;28;20103;-60
2024/03/18 22:59:01;;;;;;;7.25;1.90;;;;;;;9.14;67.48;100108.56;10432825;28;20087;-60
2024/03/18 23:04:04;;;;;;;4.47;2.10;;;;;;;9.07;67.26;100113.28;10449107;28;20467;-60
2024/03/18 23:09:10;;;;;;;12.48;2.85;;;;;;;9.00;67.35;100119.72;10415787;28;20053;-60
2024/03/18 23:14:12;;;;;;;24.27;2.20;;;;;;;8.97;67.48;100112.06;10432182;28;20459;-60
2024/03/18 23:19:14;;;;;;;45.67;2.35;;;;;;;8.95;67.47;100116.50;10431786;28;20151;-60
2024/03/18 23:24:15;;;;;;;10.35;1.92;;;;;;;8.91;67.41;100112.38;10398818;28;20471;-59
2024/03/18 23:29:16;;;;;;;75.10;2.72;;;;;;;8.82;67.41;100118.03;10432005;28;20120;-60
2024/03/18 23:34:17;;;;;;;2.80;1.45;;;;;;;8.84;67.60;100113.56;10431828;28;20072;-60
2024/03/18 23:39:18;;;;;;;43.85;2.63;;;;;;;8.81;67.44;100111.13;10398002;28;20076;-61